createdAt,value
2023-05-13T00:00:17.589Z,22.04
2023-05-13T00:01:20.378Z,22.05
2023-05-13T00:02:23.011Z,22.05
2023-05-13T00:03:26.524Z,22.05
2023-05-13T00:04:29.708Z,22.05
2023-05-13T00:05:33.421Z,22.04
2023-05-13T00:06:36.338Z,22.04
2023-05-13T00:07:41.023Z,22.05
2023-05-13T00:08:43.960Z,22.05
2023-05-13T00:09:47.054Z,22.05
2023-05-13T00:10:50.067Z,22.05
2023-05-13T00:11:52.942Z,22.05
2023-05-13T00:12:55.862Z,22.05
2023-05-13T00:15:12.047Z,22.16
2023-05-13T00:16:15.632Z,22.04
2023-05-13T00:17:18.183Z,22.05
2023-05-13T00:18:20.724Z,22.04
2023-05-13T00:19:24.084Z,22.06
2023-05-13T00:20:26.791Z,22.06
2023-05-13T00:21:30.183Z,22.06
2023-05-13T00:22:32.682Z,22.06
2023-05-13T00:23:35.344Z,22.06
2023-05-13T00:24:38.478Z,22.06
2023-05-13T00:25:43.860Z,22.06
2023-05-13T00:26:47.156Z,22.06
2023-05-13T00:27:51.576Z,22.05
2023-05-13T00:28:54.543Z,22.05
2023-05-13T00:29:58.944Z,22.04
2023-05-13T00:31:01.922Z,22.05
2023-05-13T00:32:05.774Z,22.04
2023-05-13T00:33:08.704Z,22.04
2023-05-13T00:34:11.978Z,22.05
2023-05-13T00:35:15.038Z,22.04
2023-05-13T00:36:18.213Z,22.04
2023-05-13T00:37:21.706Z,22.05
2023-05-13T00:38:24.612Z,22.05
2023-05-13T00:39:28.224Z,22.06
2023-05-13T00:40:30.937Z,22.06
2023-05-13T00:41:34.416Z,22.06
2023-05-13T00:42:37.225Z,22.04
2023-05-13T00:43:40.702Z,22.06
2023-05-13T00:44:43.559Z,22.05
2023-05-13T00:45:47.719Z,22.05
2023-05-13T00:46:50.526Z,22.06
2023-05-13T00:47:53.491Z,22.06
2023-05-13T00:48:56.814Z,22.06
2023-05-13T00:49:59.509Z,22.08
2023-05-13T00:51:03.233Z,22.06
2023-05-13T00:52:07.287Z,22.05
2023-05-13T00:53:11.183Z,22.05
2023-05-13T00:54:13.826Z,22.06
2023-05-13T00:55:16.916Z,22.05
2023-05-13T00:56:23.394Z,22.05
2023-05-13T00:57:26.263Z,22.06
2023-05-13T00:58:31.713Z,22.05
2023-05-13T00:59:34.296Z,22.05
2023-05-13T01:02:09.318Z,22.16
2023-05-13T01:04:41.298Z,22.15
2023-05-13T01:05:50.614Z,22.03
2023-05-13T01:07:30.735Z,22.03
2023-05-13T01:10:17.425Z,22.13
2023-05-13T01:11:32.817Z,22.03
2023-05-13T01:12:37.173Z,22.02
2023-05-13T01:13:41.746Z,22.02
2023-05-13T01:16:37.349Z,22.09
2023-05-13T01:17:59.153Z,21.97
2023-05-13T01:19:06.122Z,21.97
2023-05-13T01:20:10.057Z,21.96
2023-05-13T01:21:14.862Z,21.98
2023-05-13T01:22:18.920Z,21.96
2023-05-13T01:23:21.928Z,21.97
2023-05-13T01:24:24.654Z,21.96
2023-05-13T01:25:28.659Z,21.95
2023-05-13T01:26:31.679Z,21.96
2023-05-13T01:27:34.660Z,21.96
2023-05-13T01:28:37.662Z,21.95
2023-05-13T01:29:40.721Z,21.96
2023-05-13T01:30:43.592Z,21.97
2023-05-13T01:31:46.986Z,21.97
2023-05-13T01:32:50.316Z,21.98
2023-05-13T01:33:54.090Z,21.99
2023-05-13T01:34:58.142Z,21.98
2023-05-13T01:36:01.954Z,21.99
2023-05-13T01:37:06.217Z,21.99
2023-05-13T01:38:09.613Z,21.99
2023-05-13T01:39:12.905Z,22.00
2023-05-13T01:40:31.747Z,22.00
2023-05-13T01:41:22.833Z,21.99
2023-05-13T01:42:29.112Z,22.01
2023-05-13T01:43:33.831Z,22.01
2023-05-13T01:44:37.734Z,22.00
2023-05-13T01:45:40.908Z,22.01
2023-05-13T01:46:44.228Z,22.01
2023-05-13T01:47:47.579Z,22.01
2023-05-13T01:48:50.425Z,22.03
2023-05-13T01:49:53.850Z,22.02
2023-05-13T01:50:57.630Z,22.01
2023-05-13T01:52:00.799Z,22.02
2023-05-13T01:53:04.252Z,22.02
2023-05-13T01:54:07.922Z,22.02
2023-05-13T01:55:12.673Z,22.02
2023-05-13T01:56:16.281Z,22.03
2023-05-13T01:57:19.652Z,22.02
2023-05-13T01:58:24.289Z,22.03
2023-05-13T01:59:27.339Z,22.02
2023-05-13T02:00:30.210Z,22.02
2023-05-13T02:01:33.428Z,22.01
2023-05-13T02:02:36.408Z,22.01
2023-05-13T02:03:39.579Z,22.02
2023-05-13T02:04:42.401Z,22.01
2023-05-13T02:05:47.017Z,22.01
2023-05-13T02:06:50.028Z,22.01
2023-05-13T02:07:54.747Z,22.01
2023-05-13T02:08:59.611Z,22.01
2023-05-13T02:10:04.016Z,22.00
2023-05-13T02:11:07.897Z,21.99
2023-05-13T02:12:10.721Z,21.99
2023-05-13T02:13:14.592Z,22.00
2023-05-13T02:14:17.402Z,21.99
2023-05-13T02:15:20.423Z,21.99
2023-05-13T02:16:23.474Z,21.99
2023-05-13T02:17:26.485Z,22.00
2023-05-13T02:18:29.344Z,21.99
2023-05-13T02:19:32.682Z,21.99
2023-05-13T02:20:35.620Z,22.00
2023-05-13T02:21:38.428Z,22.00
2023-05-13T02:22:44.537Z,21.99
2023-05-13T02:23:48.164Z,21.99
2023-05-13T02:24:50.987Z,21.99
2023-05-13T02:25:55.087Z,21.98
2023-05-13T02:26:57.796Z,21.98
2023-05-13T02:28:00.984Z,21.98
2023-05-13T02:29:03.816Z,21.98
2023-05-13T02:30:09.622Z,21.98
2023-05-13T02:31:13.708Z,21.97
2023-05-13T02:32:17.735Z,21.98
2023-05-13T02:33:20.854Z,21.97
2023-05-13T02:34:24.113Z,21.97
2023-05-13T02:35:29.811Z,21.98
2023-05-13T02:36:36.879Z,21.97
2023-05-13T02:37:40.237Z,21.97
2023-05-13T02:38:45.554Z,21.98
2023-05-13T02:39:49.316Z,21.98
2023-05-13T02:40:54.638Z,21.97
2023-05-13T02:41:59.313Z,21.98
2023-05-13T02:43:03.522Z,21.98
2023-05-13T02:44:08.015Z,21.98
2023-05-13T02:45:12.712Z,21.98
2023-05-13T02:46:16.418Z,21.97
2023-05-13T02:47:20.517Z,21.98
2023-05-13T02:48:23.296Z,21.97
2023-05-13T02:49:27.182Z,21.97
2023-05-13T02:50:30.603Z,21.99
2023-05-13T02:51:34.334Z,21.98
2023-05-13T02:52:39.300Z,21.98
2023-05-13T02:53:42.271Z,21.98
2023-05-13T02:54:46.072Z,21.98
2023-05-13T02:55:49.338Z,21.99
2023-05-13T02:56:53.436Z,21.98
2023-05-13T02:58:09.818Z,21.98
2023-05-13T02:59:12.509Z,21.99
2023-05-13T03:00:18.532Z,21.98
2023-05-13T03:01:21.274Z,21.98
2023-05-13T03:02:24.790Z,21.98
2023-05-13T03:03:29.336Z,21.98
2023-05-13T03:04:32.213Z,21.97
2023-05-13T03:05:34.748Z,21.98
2023-05-13T03:06:38.018Z,21.98
2023-05-13T03:07:41.711Z,21.96
2023-05-13T03:08:44.439Z,21.96
2023-05-13T03:09:47.882Z,21.96
2023-05-13T03:10:51.163Z,21.96
2023-05-13T03:11:54.502Z,21.96
2023-05-13T03:12:57.201Z,21.96
2023-05-13T03:13:59.617Z,21.96
2023-05-13T03:15:03.060Z,21.95
2023-05-13T03:16:05.943Z,21.96
2023-05-13T03:17:08.900Z,21.96
2023-05-13T03:18:11.739Z,21.96
2023-05-13T03:19:14.947Z,21.96
2023-05-13T03:20:18.297Z,21.96
2023-05-13T03:21:21.453Z,21.96
2023-05-13T03:22:24.223Z,21.96
2023-05-13T03:23:28.029Z,21.96
2023-05-13T03:24:32.243Z,21.96
2023-05-13T03:25:36.132Z,21.97
2023-05-13T03:26:39.073Z,21.97
2023-05-13T03:27:42.312Z,21.97
2023-05-13T03:28:45.767Z,21.97
2023-05-13T03:29:49.486Z,21.97
2023-05-13T03:30:52.532Z,21.97
2023-05-13T03:31:55.280Z,21.97
2023-05-13T03:32:59.560Z,21.98
2023-05-13T03:34:03.570Z,21.97
2023-05-13T03:35:07.901Z,21.97
2023-05-13T03:36:11.883Z,21.97
2023-05-13T03:37:15.601Z,21.97
2023-05-13T03:39:30.514Z,22.08
2023-05-13T03:41:45.720Z,22.07
2023-05-13T03:42:50.408Z,21.97
2023-05-13T03:43:55.414Z,21.97
2023-05-13T03:44:58.126Z,21.99
2023-05-13T03:46:00.849Z,21.99
2023-05-13T03:47:04.459Z,21.98
2023-05-13T03:48:07.518Z,21.99
2023-05-13T03:49:10.181Z,21.99
2023-05-13T03:50:13.684Z,21.99
2023-05-13T03:51:18.735Z,21.99
2023-05-13T03:52:22.254Z,21.99
2023-05-13T03:53:26.638Z,21.99
2023-05-13T03:54:29.818Z,21.99
2023-05-13T03:55:33.656Z,22.00
2023-05-13T03:56:37.059Z,22.01
2023-05-13T03:57:40.595Z,22.01
2023-05-13T03:58:43.685Z,22.02
2023-05-13T03:59:46.475Z,22.02
2023-05-13T04:00:49.206Z,22.02
2023-05-13T04:01:52.985Z,22.03
2023-05-13T04:02:57.075Z,22.03
2023-05-13T04:03:59.982Z,22.01
2023-05-13T04:05:05.207Z,22.03
2023-05-13T04:06:08.118Z,22.02
2023-05-13T04:07:11.407Z,22.02
2023-05-13T04:08:15.344Z,22.02
2023-05-13T04:09:20.052Z,22.00
2023-05-13T04:10:22.995Z,22.01
2023-05-13T04:11:26.823Z,22.00
2023-05-13T04:12:33.130Z,22.01
2023-05-13T04:13:37.199Z,22.00
2023-05-13T04:14:40.201Z,22.00
2023-05-13T04:15:42.980Z,22.00
2023-05-13T04:16:46.762Z,22.00
2023-05-13T04:17:50.202Z,22.01
2023-05-13T04:18:52.905Z,21.99
2023-05-13T04:19:56.689Z,21.99
2023-05-13T04:21:06.747Z,21.99
2023-05-13T04:22:09.769Z,21.99
2023-05-13T04:23:13.926Z,21.99
2023-05-13T04:25:31.213Z,22.10
2023-05-13T04:26:34.832Z,21.99
2023-05-13T04:27:37.800Z,22.01
2023-05-13T04:28:42.276Z,22.00
2023-05-13T04:29:45.686Z,21.99
2023-05-13T04:30:49.196Z,22.01
2023-05-13T04:31:52.730Z,22.02
2023-05-13T04:32:56.038Z,22.03
2023-05-13T04:33:58.987Z,22.02
2023-05-13T04:35:02.812Z,22.02
2023-05-13T04:36:07.239Z,22.02
2023-05-13T04:37:10.838Z,22.03
2023-05-13T04:38:13.768Z,22.03
2023-05-13T04:39:16.453Z,22.04
2023-05-13T04:40:20.575Z,22.03
2023-05-13T04:41:24.332Z,22.04
2023-05-13T04:42:28.022Z,22.04
2023-05-13T04:43:31.478Z,22.04
2023-05-13T04:44:36.446Z,22.04
2023-05-13T04:45:40.079Z,22.03
2023-05-13T04:46:45.709Z,22.04
2023-05-13T04:47:49.885Z,22.04
2023-05-13T04:48:53.831Z,22.03
2023-05-13T04:49:57.822Z,22.05
2023-05-13T04:51:01.104Z,22.05
2023-05-13T04:52:06.614Z,22.04
2023-05-13T04:53:10.005Z,22.05
2023-05-13T04:54:13.347Z,22.06
2023-05-13T04:55:16.997Z,22.06
2023-05-13T04:56:20.291Z,22.06
2023-05-13T04:57:23.467Z,22.06
2023-05-13T04:58:29.634Z,22.06
2023-05-13T05:00:45.732Z,22.16
2023-05-13T05:01:49.731Z,22.06
2023-05-13T05:02:52.843Z,22.05
2023-05-13T05:03:56.203Z,22.05
2023-05-13T05:04:58.972Z,22.06
2023-05-13T05:06:01.534Z,22.05
2023-05-13T05:07:06.128Z,22.04
2023-05-13T05:08:09.031Z,22.05
2023-05-13T05:09:12.700Z,22.05
2023-05-13T05:10:16.163Z,22.04
2023-05-13T05:11:21.416Z,22.05
2023-05-13T05:12:25.589Z,22.04
2023-05-13T05:13:29.350Z,22.05
2023-05-13T05:15:44.143Z,22.15
2023-05-13T05:16:48.554Z,22.04
2023-05-13T05:17:51.323Z,22.04
2023-05-13T05:18:54.103Z,22.04
2023-05-13T05:19:58.490Z,22.04
2023-05-13T05:21:02.606Z,22.05
2023-05-13T05:22:05.590Z,22.05
2023-05-13T05:23:10.146Z,22.06
2023-05-13T05:24:12.776Z,22.06
2023-05-13T05:25:16.464Z,22.06
2023-05-13T05:26:19.424Z,22.06
2023-05-13T05:27:24.008Z,22.06
2023-05-13T05:28:27.028Z,22.06
2023-05-13T05:29:29.755Z,22.07
2023-05-13T05:30:34.337Z,22.07
2023-05-13T05:31:39.492Z,22.07
2023-05-13T05:32:42.360Z,22.08
2023-05-13T05:33:45.109Z,22.07
2023-05-13T05:34:47.917Z,22.08
2023-05-13T05:35:50.982Z,22.09
2023-05-13T05:36:55.670Z,22.09
2023-05-13T05:37:59.885Z,22.08
2023-05-13T05:39:02.907Z,22.08
2023-05-13T05:40:10.623Z,22.08
2023-05-13T05:41:15.256Z,22.09
2023-05-13T05:42:19.099Z,22.08
2023-05-13T05:43:21.848Z,22.08
2023-05-13T05:44:26.422Z,22.09
2023-05-13T05:45:30.037Z,22.09
2023-05-13T05:46:33.387Z,22.09
2023-05-13T05:47:36.852Z,22.09
2023-05-13T05:48:41.301Z,22.10
2023-05-13T05:49:45.580Z,22.10
2023-05-13T05:50:48.779Z,22.09
2023-05-13T05:51:53.924Z,22.09
2023-05-13T05:52:58.627Z,22.11
2023-05-13T05:54:03.388Z,22.10
2023-05-13T05:55:08.525Z,22.11
2023-05-13T05:56:13.934Z,22.10
2023-05-13T05:57:18.170Z,22.10
2023-05-13T05:58:22.346Z,22.10
2023-05-13T05:59:28.497Z,22.10
2023-05-13T06:00:36.066Z,22.10
2023-05-13T06:01:39.438Z,22.10
2023-05-13T06:02:43.258Z,22.10
2023-05-13T06:03:47.372Z,22.09
2023-05-13T06:04:51.528Z,22.09
2023-05-13T06:05:55.757Z,22.10
2023-05-13T06:06:58.664Z,22.10
2023-05-13T06:08:01.721Z,22.10
2023-05-13T06:09:06.562Z,22.10
2023-05-13T06:10:11.179Z,22.10
2023-05-13T06:11:15.493Z,22.10
2023-05-13T06:12:18.735Z,22.11
2023-05-13T06:13:21.334Z,22.10
2023-05-13T06:14:25.314Z,22.11
2023-05-13T06:15:30.284Z,22.10
2023-05-13T06:16:34.332Z,22.09
2023-05-13T06:17:37.698Z,22.09
2023-05-13T06:18:40.887Z,22.08
2023-05-13T06:19:44.592Z,22.09
2023-05-13T06:20:47.497Z,22.10
2023-05-13T06:21:51.498Z,22.10
2023-05-13T06:22:55.414Z,22.10
2023-05-13T06:24:01.896Z,22.11
2023-05-13T06:25:05.384Z,22.12
2023-05-13T06:26:11.149Z,22.11
2023-05-13T06:27:14.652Z,22.11
2023-05-13T06:28:18.652Z,22.11
2023-05-13T06:29:22.370Z,22.12
2023-05-13T06:30:25.384Z,22.11
2023-05-13T06:31:30.115Z,22.10
2023-05-13T06:32:32.968Z,22.10
2023-05-13T06:33:35.857Z,22.11
2023-05-13T06:34:39.809Z,22.11
2023-05-13T06:35:44.586Z,22.11
2023-05-13T06:36:48.301Z,22.12
2023-05-13T06:37:51.860Z,22.11
2023-05-13T06:38:55.177Z,22.11
2023-05-13T06:39:59.883Z,22.11
2023-05-13T06:42:14.546Z,22.23
2023-05-13T06:43:21.527Z,22.12
2023-05-13T06:44:26.033Z,22.12
2023-05-13T06:45:30.782Z,22.13
2023-05-13T06:46:34.091Z,22.13
2023-05-13T06:47:37.190Z,22.13
2023-05-13T06:48:40.850Z,22.13
2023-05-13T06:49:44.188Z,22.13
2023-05-13T06:50:49.171Z,22.13
2023-05-13T06:51:51.867Z,22.13
2023-05-13T06:52:54.705Z,22.13
2023-05-13T06:53:58.814Z,22.14
2023-05-13T06:55:02.210Z,22.15
2023-05-13T06:56:05.966Z,22.14
2023-05-13T06:57:09.778Z,22.14
2023-05-13T06:58:12.451Z,22.14
2023-05-13T06:59:16.332Z,22.13
2023-05-13T07:00:20.972Z,22.15
2023-05-13T07:01:24.140Z,22.15
2023-05-13T07:02:27.872Z,22.14
2023-05-13T07:03:31.000Z,22.14
2023-05-13T07:04:34.128Z,22.14
2023-05-13T07:05:37.731Z,22.13
2023-05-13T07:06:40.701Z,22.14
2023-05-13T07:07:43.636Z,22.13
2023-05-13T07:08:46.391Z,22.14
2023-05-13T07:09:50.061Z,22.13
2023-05-13T07:10:52.788Z,22.14
2023-05-13T07:11:55.813Z,22.13
2023-05-13T07:12:58.320Z,22.13
2023-05-13T07:14:00.874Z,22.13
2023-05-13T07:15:04.233Z,22.13
2023-05-13T07:16:07.856Z,22.13
2023-05-13T07:17:11.118Z,22.14
2023-05-13T07:18:14.240Z,22.14
2023-05-13T07:19:18.540Z,22.14
2023-05-13T07:20:22.977Z,22.13
2023-05-13T07:21:26.186Z,22.13
2023-05-13T07:22:28.969Z,22.13
2023-05-13T07:23:33.080Z,22.12
2023-05-13T07:24:35.549Z,22.13
2023-05-13T07:25:40.013Z,22.14
2023-05-13T07:26:42.786Z,22.13
2023-05-13T07:27:47.327Z,22.15
2023-05-13T07:28:51.165Z,22.15
2023-05-13T07:29:54.249Z,22.15
2023-05-13T07:30:58.292Z,22.15
2023-05-13T07:32:05.189Z,22.15
2023-05-13T07:33:09.205Z,22.15
2023-05-13T07:34:12.915Z,22.15
2023-05-13T07:35:17.502Z,22.15
2023-05-13T07:36:21.706Z,22.15
2023-05-13T07:37:24.677Z,22.15
2023-05-13T07:38:27.388Z,22.15
2023-05-13T07:39:31.031Z,22.16
2023-05-13T07:40:33.821Z,22.17
2023-05-13T07:41:37.802Z,22.18
2023-05-13T07:42:40.642Z,22.18
2023-05-13T07:43:43.714Z,22.18
2023-05-13T07:44:46.512Z,22.19
2023-05-13T07:47:03.820Z,22.28
2023-05-13T07:48:06.885Z,22.19
2023-05-13T07:49:09.700Z,22.19
2023-05-13T07:50:15.018Z,22.18
2023-05-13T07:51:18.388Z,22.19
2023-05-13T07:52:21.294Z,22.19
2023-05-13T07:53:24.392Z,22.19
2023-05-13T07:54:27.931Z,22.20
2023-05-13T07:55:31.844Z,22.19
2023-05-13T07:56:35.329Z,22.20
2023-05-13T07:57:38.900Z,22.20
2023-05-13T07:58:41.712Z,22.19
2023-05-13T07:59:45.089Z,22.19
2023-05-13T08:00:48.899Z,22.19
2023-05-13T08:01:52.258Z,22.18
2023-05-13T08:02:56.594Z,22.18
2023-05-13T08:04:00.828Z,22.18
2023-05-13T08:05:04.871Z,22.16
2023-05-13T08:06:09.918Z,22.16
2023-05-13T08:07:12.712Z,22.16
2023-05-13T08:08:15.788Z,22.15
2023-05-13T08:09:19.975Z,22.15
2023-05-13T08:10:23.470Z,22.15
2023-05-13T08:11:26.364Z,22.14
2023-05-13T08:12:30.050Z,22.14
2023-05-13T08:13:33.802Z,22.13
2023-05-13T08:14:36.402Z,22.12
2023-05-13T08:15:40.331Z,22.11
2023-05-13T08:16:43.767Z,22.11
2023-05-13T08:17:48.669Z,22.11
2023-05-13T08:18:51.708Z,22.10
2023-05-13T08:19:54.421Z,22.10
2023-05-13T08:20:57.341Z,22.11
2023-05-13T08:22:00.693Z,22.12
2023-05-13T08:23:03.993Z,22.13
2023-05-13T08:24:08.176Z,22.12
2023-05-13T08:25:12.172Z,22.12
2023-05-13T08:26:16.321Z,22.13
2023-05-13T08:27:19.285Z,22.13
2023-05-13T08:28:22.457Z,22.13
2023-05-13T08:29:26.012Z,22.13
2023-05-13T08:30:29.114Z,22.12
2023-05-13T08:31:32.034Z,22.13
2023-05-13T08:32:35.544Z,22.13
2023-05-13T08:33:41.518Z,22.13
2023-05-13T08:34:44.212Z,22.14
2023-05-13T08:35:46.937Z,22.14
2023-05-13T08:36:50.228Z,22.13
2023-05-13T08:37:53.086Z,22.13
2023-05-13T08:38:56.124Z,22.14
2023-05-13T08:40:00.829Z,22.14
2023-05-13T08:41:06.085Z,22.15
2023-05-13T08:42:09.008Z,22.15
2023-05-13T08:43:12.210Z,22.15
2023-05-13T08:45:30.903Z,22.25
2023-05-13T08:46:34.862Z,22.14
2023-05-13T08:47:55.043Z,22.15
2023-05-13T08:48:58.500Z,22.14
2023-05-13T08:50:02.948Z,22.15
2023-05-13T08:51:05.941Z,22.15
2023-05-13T08:52:08.816Z,22.15
2023-05-13T08:53:12.550Z,22.14
2023-05-13T08:54:17.142Z,22.14
2023-05-13T08:55:20.397Z,22.13
2023-05-13T08:56:25.122Z,22.12
2023-05-13T08:57:28.076Z,22.13
2023-05-13T08:58:31.387Z,22.14
2023-05-13T08:59:36.000Z,22.14
2023-05-13T09:00:39.176Z,22.18
2023-05-13T09:01:43.958Z,22.18
2023-05-13T09:02:48.049Z,22.20
2023-05-13T09:03:58.149Z,22.21
2023-05-13T09:05:04.927Z,22.20
2023-05-13T09:06:07.962Z,22.22
2023-05-13T09:07:11.409Z,22.23
2023-05-13T09:08:15.035Z,22.23
2023-05-13T09:09:18.080Z,22.24
2023-05-13T09:10:21.000Z,22.24
2023-05-13T09:11:24.893Z,22.24
2023-05-13T09:14:06.084Z,22.36
2023-05-13T09:15:11.497Z,22.26
2023-05-13T09:16:15.747Z,22.26
2023-05-13T09:17:18.559Z,22.25
2023-05-13T09:18:21.150Z,22.26
2023-05-13T09:19:26.155Z,22.28
2023-05-13T09:21:42.976Z,22.38
2023-05-13T09:22:51.176Z,22.28
2023-05-13T09:25:25.867Z,22.38
2023-05-13T09:26:29.764Z,22.28
2023-05-13T09:27:41.637Z,22.28
2023-05-13T09:28:46.235Z,22.29
2023-05-13T09:29:53.161Z,22.29
2023-05-13T09:30:56.397Z,22.29
2023-05-13T09:32:01.276Z,22.29
2023-05-13T09:33:10.646Z,22.28
2023-05-13T09:34:13.394Z,22.29
2023-05-13T09:35:17.380Z,22.26
2023-05-13T09:36:20.156Z,22.28
2023-05-13T09:37:23.976Z,22.29
2023-05-13T09:39:42.504Z,22.40
2023-05-13T09:40:58.311Z,22.29
2023-05-13T09:42:04.311Z,22.29
2023-05-13T09:43:11.064Z,22.28
2023-05-13T09:44:15.373Z,22.28
2023-05-13T09:45:18.137Z,22.28
2023-05-13T09:46:22.254Z,22.28
2023-05-13T09:47:26.093Z,22.28
2023-05-13T09:48:30.559Z,22.26
2023-05-13T09:50:57.699Z,22.35
2023-05-13T09:52:00.942Z,22.23
2023-05-13T09:53:19.240Z,22.23
2023-05-13T09:56:09.426Z,22.35
2023-05-13T09:58:32.329Z,22.27
2023-05-13T09:59:35.523Z,22.22
2023-05-13T10:00:42.388Z,22.21
2023-05-13T10:02:58.532Z,22.32
2023-05-13T10:04:04.954Z,22.21
2023-05-13T10:05:26.529Z,22.21
2023-05-13T10:06:32.458Z,22.20
2023-05-13T10:07:36.966Z,22.21
2023-05-13T10:08:39.653Z,22.20
2023-05-13T10:09:43.497Z,22.20
2023-05-13T10:10:46.557Z,22.20
2023-05-13T10:11:51.299Z,22.20
2023-05-13T10:13:59.053Z,22.20
2023-05-13T10:16:14.128Z,22.32
2023-05-13T10:18:29.888Z,22.31
2023-05-13T10:19:33.643Z,22.22
2023-05-13T10:20:37.068Z,22.21
2023-05-13T10:21:46.027Z,22.21
2023-05-13T10:22:51.522Z,22.22
2023-05-13T10:23:55.900Z,22.21
2023-05-13T10:25:02.614Z,22.21
2023-05-13T10:26:06.424Z,22.22
2023-05-13T10:27:09.407Z,22.21
2023-05-13T10:29:25.642Z,22.32
2023-05-13T10:30:30.718Z,22.21
2023-05-13T10:31:34.979Z,22.21
2023-05-13T10:32:41.202Z,22.20
2023-05-13T10:33:45.653Z,22.21
2023-05-13T10:34:48.727Z,22.20
2023-05-13T10:37:48.902Z,22.32
2023-05-13T10:39:20.497Z,22.20
2023-05-13T10:41:00.349Z,22.21
2023-05-13T10:42:25.722Z,22.20
2023-05-13T10:43:32.232Z,22.20
2023-05-13T10:44:35.145Z,22.18
2023-05-13T10:45:37.986Z,22.17
2023-05-13T10:46:42.624Z,22.15
2023-05-13T10:47:49.640Z,22.14
2023-05-13T10:48:58.339Z,22.13
2023-05-13T10:51:24.389Z,22.22
2023-05-13T10:52:30.719Z,22.11
2023-05-13T10:53:36.752Z,22.11
2023-05-13T10:54:41.805Z,22.11
2023-05-13T10:55:45.933Z,22.10
2023-05-13T10:56:58.674Z,22.10
2023-05-13T10:58:12.743Z,22.09
2023-05-13T10:59:17.770Z,22.10
2023-05-13T11:02:55.154Z,22.21
2023-05-13T11:04:03.770Z,22.11
2023-05-13T11:05:07.269Z,22.11
2023-05-13T11:06:18.834Z,22.11
2023-05-13T11:07:22.535Z,22.11
2023-05-13T11:08:40.486Z,22.13
2023-05-13T11:09:51.008Z,22.14
2023-05-13T11:10:56.752Z,22.15
2023-05-13T11:12:00.245Z,22.18
2023-05-13T11:13:23.393Z,22.19
2023-05-13T11:14:27.861Z,22.21
2023-05-13T11:15:47.982Z,22.23
2023-05-13T11:17:04.357Z,22.22
2023-05-13T11:18:07.108Z,22.24
2023-05-13T11:19:18.837Z,22.26
2023-05-13T11:21:36.114Z,22.38
2023-05-13T11:23:59.818Z,22.39
2023-05-13T11:25:12.104Z,22.29
2023-05-13T11:26:17.815Z,22.30
2023-05-13T11:27:21.762Z,22.31
2023-05-13T11:28:59.556Z,22.31
2023-05-13T11:30:03.308Z,22.33
2023-05-13T11:31:16.430Z,22.34
2023-05-13T11:34:14.363Z,22.44
2023-05-13T11:35:24.096Z,22.34
2023-05-13T11:36:30.745Z,22.34
2023-05-13T11:37:33.440Z,22.35
2023-05-13T11:38:39.025Z,22.36
2023-05-13T11:39:42.286Z,22.36
2023-05-13T11:40:45.645Z,22.36
2023-05-13T11:41:49.939Z,22.34
2023-05-13T11:42:54.652Z,22.35
2023-05-13T11:43:59.118Z,22.35
2023-05-13T11:45:03.955Z,22.36
2023-05-13T11:46:07.517Z,22.37
2023-05-13T11:47:11.541Z,22.37
2023-05-13T11:49:41.870Z,22.49
2023-05-13T11:50:45.364Z,22.39
2023-05-13T11:51:48.984Z,22.40
2023-05-13T11:52:58.262Z,22.40
2023-05-13T11:56:40.787Z,22.53
2023-05-13T11:59:14.037Z,22.53
2023-05-13T12:00:18.884Z,22.43
2023-05-13T12:01:24.756Z,22.44
2023-05-13T12:03:42.985Z,22.56
2023-05-13T12:04:46.188Z,22.46
2023-05-13T12:05:51.842Z,22.46
2023-05-13T12:06:54.526Z,22.48
2023-05-13T12:07:58.232Z,22.49
2023-05-13T12:09:09.150Z,22.49
2023-05-13T12:10:14.573Z,22.49
2023-05-13T12:11:17.484Z,22.49
2023-05-13T12:12:20.469Z,22.50
2023-05-13T12:13:23.334Z,22.50
2023-05-13T12:14:27.887Z,22.52
2023-05-13T12:15:31.221Z,22.51
2023-05-13T12:16:34.185Z,22.51
2023-05-13T12:17:38.499Z,22.52
2023-05-13T12:18:41.311Z,22.52
2023-05-13T12:20:05.901Z,22.53
2023-05-13T12:22:29.530Z,22.64
2023-05-13T12:24:54.698Z,22.63
2023-05-13T12:25:59.150Z,22.52
2023-05-13T12:27:07.217Z,22.53
2023-05-13T12:28:20.099Z,22.52
2023-05-13T12:29:23.296Z,22.52
2023-05-13T12:30:27.200Z,22.54
2023-05-13T12:31:30.689Z,22.53
2023-05-13T12:32:34.547Z,22.53
2023-05-13T12:33:42.774Z,22.53
2023-05-13T12:34:50.566Z,22.54
2023-05-13T12:37:27.289Z,22.63
2023-05-13T12:38:31.774Z,22.53
2023-05-13T12:39:34.190Z,22.52
2023-05-13T12:40:37.007Z,22.50
2023-05-13T12:41:40.927Z,22.50
2023-05-13T12:42:46.766Z,22.48
2023-05-13T12:43:50.524Z,22.48
2023-05-13T12:44:54.105Z,22.47
2023-05-13T12:46:00.225Z,22.47
2023-05-13T12:47:04.256Z,22.45
2023-05-13T12:48:07.078Z,22.45
2023-05-13T12:49:12.482Z,22.45
2023-05-13T12:50:15.688Z,22.43
2023-05-13T12:51:18.896Z,22.41
2023-05-13T12:52:21.799Z,22.42
2023-05-13T12:53:24.980Z,22.42
2023-05-13T12:54:27.653Z,22.43
2023-05-13T12:55:31.162Z,22.42
2023-05-13T12:56:33.985Z,22.43
2023-05-13T12:57:36.850Z,22.43
2023-05-13T12:59:52.971Z,22.53
2023-05-13T13:00:55.636Z,22.44
2023-05-13T13:03:24.882Z,22.54
2023-05-13T13:04:27.804Z,22.44
2023-05-13T13:05:32.311Z,22.45
2023-05-13T13:06:35.203Z,22.44
2023-05-13T13:07:38.118Z,22.46
2023-05-13T13:08:40.976Z,22.45
2023-05-13T13:09:44.857Z,22.46
2023-05-13T13:10:48.124Z,22.45
2023-05-13T13:11:52.428Z,22.46
2023-05-13T13:12:55.252Z,22.47
2023-05-13T13:14:00.033Z,22.47
2023-05-13T13:15:04.904Z,22.46
2023-05-13T13:16:09.828Z,22.47
2023-05-13T13:17:13.774Z,22.47
2023-05-13T13:18:16.293Z,22.47
2023-05-13T13:19:19.268Z,22.48
2023-05-13T13:20:22.983Z,22.48
2023-05-13T13:22:38.691Z,22.61
2023-05-13T13:23:41.613Z,22.51
2023-05-13T13:24:45.388Z,22.50
2023-05-13T13:25:48.230Z,22.51
2023-05-13T13:26:53.138Z,22.52
2023-05-13T13:27:55.810Z,22.53
2023-05-13T13:28:58.575Z,22.54
2023-05-13T13:30:03.082Z,22.55
2023-05-13T13:31:07.854Z,22.55
2023-05-13T13:32:11.108Z,22.56
2023-05-13T13:33:15.290Z,22.57
2023-05-13T13:34:18.170Z,22.58
2023-05-13T13:35:21.201Z,22.59
2023-05-13T13:36:26.071Z,22.59
2023-05-13T13:37:28.536Z,22.61
2023-05-13T13:38:31.791Z,22.61
2023-05-13T13:39:35.010Z,22.62
2023-05-13T13:40:38.352Z,22.63
2023-05-13T13:41:41.371Z,22.64
2023-05-13T13:42:47.002Z,22.64
2023-05-13T13:43:49.728Z,22.65
2023-05-13T13:44:52.420Z,22.65
2023-05-13T13:45:56.136Z,22.66
2023-05-13T13:46:59.173Z,22.65
2023-05-13T13:48:03.030Z,22.66
2023-05-13T13:49:22.769Z,22.66
2023-05-13T13:50:13.184Z,22.66
2023-05-13T13:51:16.271Z,22.67
2023-05-13T13:52:20.474Z,22.67
2023-05-13T13:53:22.999Z,22.68
2023-05-13T13:54:25.540Z,22.70
2023-05-13T13:55:28.702Z,22.71
2023-05-13T13:56:31.397Z,22.71
2023-05-13T13:57:36.069Z,22.71
2023-05-13T13:58:39.881Z,22.73
2023-05-13T13:59:42.574Z,22.74
2023-05-13T14:00:45.914Z,22.74
2023-05-13T14:01:50.683Z,22.75
2023-05-13T14:02:54.372Z,22.76
2023-05-13T14:04:11.456Z,22.77
2023-05-13T14:05:16.298Z,22.78
2023-05-13T14:07:32.519Z,22.90
2023-05-13T14:08:36.469Z,22.80
2023-05-13T14:09:38.973Z,22.81
2023-05-13T14:10:42.337Z,22.82
2023-05-13T14:12:59.216Z,22.95
2023-05-13T14:14:02.125Z,22.86
2023-05-13T14:15:06.313Z,22.87
2023-05-13T14:16:10.102Z,22.88
2023-05-13T14:17:14.510Z,22.89
2023-05-13T14:18:18.732Z,22.90
2023-05-13T14:19:21.775Z,22.90
2023-05-13T14:22:30.073Z,22.94
2023-05-13T14:23:33.068Z,22.93
2023-05-13T14:24:35.645Z,22.95
2023-05-13T14:25:38.409Z,22.96
2023-05-13T14:27:54.884Z,23.09
2023-05-13T14:28:59.915Z,22.99
2023-05-13T14:30:04.544Z,22.99
2023-05-13T14:31:08.394Z,23.01
2023-05-13T14:32:11.001Z,23.01
2023-05-13T14:33:13.847Z,23.02
2023-05-13T14:34:17.088Z,23.03
2023-05-13T14:35:19.670Z,23.04
2023-05-13T14:36:24.963Z,23.06
2023-05-13T14:37:29.338Z,23.06
2023-05-13T14:38:32.131Z,23.06
2023-05-13T14:39:35.897Z,23.06
2023-05-13T14:40:39.978Z,23.08
2023-05-13T14:41:46.262Z,23.08
2023-05-13T14:42:49.299Z,23.08
2023-05-13T14:43:52.071Z,23.09
2023-05-13T14:44:55.243Z,23.09
2023-05-13T14:45:57.925Z,23.11
2023-05-13T14:47:00.609Z,23.10
2023-05-13T14:48:03.640Z,23.10
2023-05-13T14:49:08.012Z,23.10
2023-05-13T14:50:12.308Z,23.11
2023-05-13T14:51:15.005Z,23.10
2023-05-13T14:52:17.604Z,23.10
2023-05-13T14:53:20.631Z,23.09